createdAt,value
2019-05-03T00:02:07.183Z,99.90
2019-05-03T00:04:36.570Z,99.90
2019-05-03T00:07:05.131Z,99.90
2019-05-03T00:09:33.570Z,99.90
2019-05-03T00:12:01.986Z,99.90
2019-05-03T00:14:32.378Z,99.90
2019-05-03T00:17:02.273Z,99.90
2019-05-03T00:19:32.683Z,99.90
2019-05-03T00:22:02.093Z,99.90
2019-05-03T00:24:32.148Z,99.90
2019-05-03T00:27:01.932Z,99.90
2019-05-03T00:29:32.388Z,99.90
2019-05-03T00:32:01.998Z,99.90
2019-05-03T00:34:46.440Z,99.90
2019-05-03T00:37:24.875Z,99.90
2019-05-03T00:39:57.410Z,99.90
2019-05-03T00:42:25.829Z,99.90
2019-05-03T00:44:54.255Z,99.90
2019-05-03T00:47:22.670Z,99.90
2019-05-03T00:49:51.854Z,99.90
2019-05-03T00:52:22.249Z,99.90
2019-05-03T00:54:50.575Z,99.90
2019-05-03T00:57:19.037Z,99.90
2019-05-03T00:59:47.434Z,99.90
2019-05-03T01:02:15.940Z,99.90
2019-05-03T01:04:44.394Z,99.90
2019-05-03T01:07:12.838Z,99.90
2019-05-03T01:09:42.414Z,99.90
2019-05-03T01:12:12.611Z,99.90
2019-05-03T01:14:42.750Z,99.90
2019-05-03T01:17:11.824Z,99.90
2019-05-03T01:19:40.333Z,99.90
2019-05-03T01:22:08.765Z,99.90
2019-05-03T01:24:37.177Z,99.90
2019-05-03T01:27:05.699Z,99.90
2019-05-03T01:29:34.202Z,99.90
2019-05-03T01:32:02.611Z,99.90
2019-05-03T01:34:32.599Z,99.90
2019-05-03T01:37:02.578Z,99.90
2019-05-03T01:39:31.627Z,99.90
2019-05-03T01:42:00.194Z,99.90
2019-05-03T01:44:28.637Z,99.90
2019-05-03T01:46:58.682Z,99.90
2019-05-03T01:49:28.750Z,99.90
2019-05-03T01:52:14.629Z,99.90
2019-05-03T01:54:43.704Z,99.90
2019-05-03T01:57:12.117Z,99.90
2019-05-03T01:59:42.452Z,99.90
2019-05-03T02:02:16.397Z,99.90
2019-05-03T02:04:46.445Z,99.90
2019-05-03T02:07:14.882Z,99.90
2019-05-03T02:09:43.294Z,99.90
2019-05-03T02:12:12.734Z,99.90
2019-05-03T02:14:42.192Z,99.90
2019-05-03T02:17:12.455Z,99.90
2019-05-03T02:19:42.142Z,99.90
2019-05-03T02:22:12.040Z,99.90
2019-05-03T02:24:42.258Z,99.90
2019-05-03T02:27:12.578Z,99.90
2019-05-03T02:29:41.839Z,99.90
2019-05-03T02:32:12.925Z,99.90
2019-05-03T02:34:43.577Z,99.90
2019-05-03T02:37:13.616Z,99.90
2019-05-03T02:39:42.713Z,99.90
2019-05-03T02:42:11.781Z,99.90
2019-05-03T02:44:40.700Z,99.90
2019-05-03T02:47:16.475Z,99.90
2019-05-03T02:49:52.337Z,99.90
2019-05-03T02:52:37.157Z,99.90
2019-05-03T02:55:08.157Z,99.90
2019-05-03T02:57:36.581Z,99.90
2019-05-03T03:00:07.724Z,99.90
2019-05-03T03:02:36.783Z,99.90
2019-05-03T03:05:05.981Z,99.90
2019-05-03T03:07:37.528Z,99.90
2019-05-03T03:10:07.050Z,99.90
2019-05-03T03:12:36.428Z,99.90
2019-05-03T03:15:06.189Z,99.90
2019-05-03T03:17:36.417Z,99.90
2019-05-03T03:20:06.527Z,99.90
2019-05-03T03:22:38.040Z,99.90
2019-05-03T03:25:08.259Z,99.90
2019-05-03T03:27:39.776Z,99.90
2019-05-03T03:30:17.388Z,99.90
2019-05-03T03:32:48.266Z,99.90
2019-05-03T03:35:21.495Z,99.90
2019-05-03T03:37:49.179Z,99.90
2019-05-03T03:40:18.771Z,99.90
2019-05-03T03:42:50.258Z,99.90
2019-05-03T03:45:18.753Z,99.90
2019-05-03T03:47:49.597Z,99.90
2019-05-03T03:50:18.111Z,99.90
2019-05-03T03:52:47.845Z,99.90
2019-05-03T03:55:16.309Z,99.90
2019-05-03T03:57:46.831Z,99.90
2019-05-03T04:00:16.776Z,99.90
2019-05-03T04:02:45.884Z,99.90
2019-05-03T04:05:15.903Z,99.90
2019-05-03T04:07:46.413Z,99.90
2019-05-03T04:10:15.684Z,99.90
2019-05-03T04:12:45.678Z,99.90
2019-05-03T04:15:26.105Z,99.90
2019-05-03T04:17:59.525Z,99.90
2019-05-03T04:20:30.042Z,99.90
2019-05-03T04:22:58.917Z,99.90
2019-05-03T04:25:28.054Z,99.90
2019-05-03T04:27:56.571Z,99.90
2019-05-03T04:30:25.641Z,99.90
2019-05-03T04:32:56.503Z,99.90
2019-05-03T04:35:26.489Z,99.90
2019-05-03T04:37:55.858Z,99.90
2019-05-03T04:40:25.904Z,99.90
2019-05-03T04:42:55.603Z,99.90
2019-05-03T04:45:25.620Z,99.90
2019-05-03T04:47:57.883Z,99.90
2019-05-03T04:50:26.361Z,99.90
2019-05-03T04:52:56.559Z,99.90
2019-05-03T04:55:26.690Z,99.90
2019-05-03T04:57:56.107Z,99.90
2019-05-03T05:00:25.639Z,99.90
2019-05-03T05:02:55.157Z,99.90
2019-05-03T05:05:26.164Z,99.90
2019-05-03T05:07:55.709Z,99.90
2019-05-03T05:10:26.194Z,99.90
2019-05-03T05:12:55.188Z,99.90
2019-05-03T05:15:26.059Z,99.90
2019-05-03T05:18:11.242Z,99.90
2019-05-03T05:20:56.425Z,99.90
2019-05-03T05:23:25.172Z,99.90
2019-05-03T05:26:11.248Z,99.90
2019-05-03T05:28:47.308Z,99.90
2019-05-03T05:31:15.710Z,99.90
2019-05-03T05:33:44.637Z,99.90
2019-05-03T05:36:15.141Z,99.90
2019-05-03T05:38:45.083Z,99.90
2019-05-03T05:41:15.492Z,99.90
2019-05-03T05:43:44.662Z,99.90
2019-05-03T05:46:14.650Z,99.90
2019-05-03T05:48:47.779Z,99.90
2019-05-03T05:51:16.312Z,99.90
2019-05-03T05:53:44.889Z,99.90
2019-05-03T05:56:32.783Z,99.90
2019-05-03T05:59:06.400Z,99.90
2019-05-03T06:01:36.432Z,99.90
2019-05-03T06:04:05.360Z,99.90
2019-05-03T06:06:45.130Z,99.90
2019-05-03T06:09:31.341Z,99.90
2019-05-03T06:12:01.379Z,99.90
2019-05-03T06:14:31.461Z,99.90
2019-05-03T06:17:01.526Z,99.90
2019-05-03T06:19:31.562Z,99.90
2019-05-03T06:22:01.948Z,99.90
2019-05-03T06:24:31.984Z,99.90
2019-05-03T06:27:02.053Z,99.90
2019-05-03T06:29:30.465Z,99.90
2019-05-03T06:32:16.544Z,99.90
2019-05-03T06:34:45.533Z,99.90
2019-05-03T06:37:15.708Z,99.90
2019-05-03T06:39:45.374Z,99.90
2019-05-03T06:42:17.520Z,99.90
2019-05-03T06:44:45.533Z,99.90
2019-05-03T06:47:14.857Z,99.90
2019-05-03T06:49:44.815Z,99.90
2019-05-03T06:52:14.747Z,99.90
2019-05-03T06:54:44.981Z,99.90
2019-05-03T06:57:15.227Z,99.90
2019-05-03T06:59:45.308Z,99.90
2019-05-03T07:02:18.372Z,99.90
2019-05-03T07:04:50.964Z,99.90
2019-05-03T07:07:34.962Z,99.90
2019-05-03T07:10:11.666Z,99.90
2019-05-03T07:12:57.893Z,99.90
2019-05-03T07:15:26.657Z,99.90
2019-05-03T07:17:55.631Z,99.90
2019-05-03T07:20:25.579Z,99.90
2019-05-03T07:22:55.812Z,99.80
2019-05-03T07:25:25.651Z,99.30
2019-05-03T07:27:55.549Z,99.10
2019-05-03T07:30:24.899Z,99.20
2019-05-03T07:32:55.201Z,99.00
2019-05-03T07:35:25.136Z,98.40
2019-05-03T07:37:55.371Z,97.80
2019-05-03T07:40:25.360Z,97.30
2019-05-03T07:42:55.529Z,96.80
2019-05-03T07:45:25.513Z,96.10
2019-05-03T07:47:55.880Z,95.40
2019-05-03T07:50:25.909Z,95.30
2019-05-03T07:52:55.634Z,94.10
2019-05-03T07:55:42.131Z,93.70
2019-05-03T07:58:12.244Z,93.20
2019-05-03T08:00:40.697Z,92.70
2019-05-03T08:03:09.101Z,92.70
2019-05-03T08:05:37.773Z,91.80
2019-05-03T08:08:06.211Z,91.40
2019-05-03T08:10:34.675Z,90.70
2019-05-03T08:13:04.677Z,89.80
2019-05-03T08:15:34.773Z,88.00
2019-05-03T08:18:04.829Z,86.90
2019-05-03T08:20:35.068Z,85.10
2019-05-03T08:23:05.254Z,84.60
2019-05-03T08:25:35.445Z,82.60
2019-05-03T08:28:05.286Z,81.70
2019-05-03T08:30:35.541Z,79.80
2019-05-03T08:33:14.854Z,79.40
2019-05-03T08:35:44.968Z,78.10
2019-05-03T08:38:15.199Z,78.30
2019-05-03T08:40:45.507Z,78.70
2019-05-03T08:43:15.607Z,76.90
2019-05-03T08:45:44.760Z,76.90
2019-05-03T08:48:15.057Z,77.90
2019-05-03T08:50:45.077Z,77.90
2019-05-03T08:53:15.505Z,79.20
2019-05-03T08:55:44.939Z,80.80
2019-05-03T08:58:15.374Z,82.80
2019-05-03T09:00:45.420Z,84.30
2019-05-03T09:03:14.452Z,84.70
2019-05-03T09:05:45.346Z,85.30
2019-05-03T09:08:15.555Z,85.40
2019-05-03T09:10:59.733Z,84.70
2019-05-03T09:13:29.865Z,85.50
2019-05-03T09:15:58.284Z,85.80
2019-05-03T09:18:26.769Z,84.50
2019-05-03T09:20:55.479Z,83.60
2019-05-03T09:23:26.073Z,81.90
2019-05-03T09:25:54.869Z,81.30
2019-05-03T09:28:25.411Z,82.30
2019-05-03T09:30:55.243Z,81.80
2019-05-03T09:33:24.887Z,81.10
2019-05-03T09:35:54.992Z,81.80
2019-05-03T09:38:25.500Z,81.30
2019-05-03T09:40:54.576Z,79.50
2019-05-03T09:43:24.927Z,79.90
2019-05-03T09:45:54.649Z,78.90
2019-05-03T09:48:25.246Z,78.80
2019-05-03T09:50:55.429Z,79.50
2019-05-03T09:53:25.623Z,78.90
2019-05-03T09:55:55.526Z,77.60
2019-05-03T09:58:26.178Z,76.60
2019-05-03T10:00:55.516Z,75.20
2019-05-03T10:03:24.149Z,75.30
2019-05-03T10:05:55.083Z,73.20
2019-05-03T10:08:25.251Z,74.10
2019-05-03T10:11:11.622Z,72.80
2019-05-03T10:13:41.960Z,71.20
2019-05-03T10:16:10.583Z,71.50
2019-05-03T10:18:39.232Z,72.70
2019-05-03T10:21:07.674Z,74.10
2019-05-03T10:23:37.716Z,76.10
2019-05-03T10:26:06.367Z,77.90
2019-05-03T10:28:34.848Z,77.50
2019-05-03T10:31:07.796Z,76.10
2019-05-03T10:33:45.007Z,76.10
2019-05-03T10:36:15.448Z,76.30
2019-05-03T10:38:46.032Z,76.90
2019-05-03T10:41:14.133Z,77.30
2019-05-03T10:43:44.920Z,78.50
2019-05-03T10:46:12.793Z,79.50
2019-05-03T10:48:41.197Z,80.10
2019-05-03T10:51:09.615Z,80.20
2019-05-03T10:53:40.202Z,78.50
2019-05-03T10:56:22.518Z,77.90
2019-05-03T10:58:56.052Z,76.70
2019-05-03T11:01:45.267Z,76.00
2019-05-03T11:04:14.791Z,74.60
2019-05-03T11:06:45.468Z,72.80
2019-05-03T11:09:15.343Z,73.20
2019-05-03T11:11:45.164Z,71.50
2019-05-03T11:14:14.953Z,70.80
2019-05-03T11:16:45.770Z,70.80
2019-05-03T11:19:14.542Z,71.40
2019-05-03T11:21:45.280Z,71.80
2019-05-03T11:24:14.732Z,70.50
2019-05-03T11:26:45.492Z,70.10
2019-05-03T11:29:15.781Z,69.60
2019-05-03T11:31:45.862Z,67.10
2019-05-03T11:34:15.922Z,65.70
2019-05-03T11:37:01.992Z,64.60
2019-05-03T11:39:30.397Z,63.80
2019-05-03T11:41:59.692Z,65.70
2019-05-03T11:44:39.929Z,66.70
2019-05-03T11:47:11.469Z,67.00
2019-05-03T11:49:39.889Z,69.00
2019-05-03T11:52:08.402Z,70.50
2019-05-03T11:54:36.900Z,69.80
2019-05-03T11:57:12.616Z,69.00
2019-05-03T11:59:41.084Z,66.10
2019-05-03T12:02:11.132Z,64.70
2019-05-03T12:04:39.556Z,63.90
2019-05-03T12:07:08.016Z,63.30
2019-05-03T12:09:38.316Z,64.30
2019-05-03T12:12:08.382Z,64.50
2019-05-03T12:14:36.780Z,66.90
2019-05-03T12:17:17.850Z,67.50
2019-05-03T12:19:40.867Z,66.70
2019-05-03T12:22:10.301Z,65.40
2019-05-03T12:24:40.461Z,64.20
2019-05-03T12:27:09.229Z,63.10
2019-05-03T12:29:37.658Z,61.10
2019-05-03T12:32:06.377Z,60.20
2019-05-03T12:34:35.333Z,59.50
2019-05-03T12:37:05.128Z,60.10
2019-05-03T12:39:35.718Z,60.90
2019-05-03T12:42:05.873Z,61.00
2019-05-03T12:44:35.439Z,61.10
2019-05-03T12:47:05.967Z,62.40
2019-05-03T12:49:35.917Z,63.40
2019-05-03T12:52:05.361Z,63.40
2019-05-03T12:54:35.584Z,64.10
2019-05-03T12:57:05.048Z,64.60
2019-05-03T12:59:38.021Z,65.30
2019-05-03T13:02:15.506Z,65.70
2019-05-03T13:04:45.648Z,65.90
2019-05-03T13:07:15.756Z,65.40
2019-05-03T13:09:45.299Z,65.40
2019-05-03T13:12:15.532Z,66.00
2019-05-03T13:14:45.365Z,64.70
2019-05-03T13:17:15.204Z,62.90
2019-05-03T13:19:45.220Z,61.90
2019-05-03T13:22:14.295Z,61.70
2019-05-03T13:24:42.755Z,61.60
2019-05-03T13:27:11.321Z,61.60
2019-05-03T13:29:39.757Z,61.50
2019-05-03T13:32:08.143Z,62.40
2019-05-03T13:34:36.576Z,62.10
2019-05-03T13:37:05.236Z,62.30
2019-05-03T13:39:35.710Z,61.90
2019-05-03T13:42:05.697Z,61.70
2019-05-03T13:44:35.554Z,60.00
2019-05-03T13:47:04.557Z,58.40
2019-05-03T13:49:35.230Z,58.30
2019-05-03T13:52:05.097Z,58.80
2019-05-03T13:54:34.967Z,59.60
2019-05-03T13:57:04.964Z,60.30
2019-05-03T13:59:33.525Z,60.90
2019-05-03T14:02:12.403Z,61.80
2019-05-03T14:04:35.779Z,62.40
2019-05-03T14:07:04.523Z,62.40
2019-05-03T14:09:34.821Z,63.10
2019-05-03T14:12:05.594Z,63.00
2019-05-03T14:14:50.846Z,63.40
2019-05-03T14:17:19.276Z,63.70
2019-05-03T14:19:48.016Z,64.00
2019-05-03T14:22:16.839Z,63.50
2019-05-03T14:24:45.237Z,64.20
2019-05-03T14:27:16.526Z,65.50
2019-05-03T14:29:45.444Z,63.60
2019-05-03T14:32:25.354Z,62.20
2019-05-03T14:34:45.384Z,61.20
2019-05-03T14:37:13.861Z,60.00
2019-05-03T14:39:42.269Z,59.50
2019-05-03T14:42:10.716Z,58.70
2019-05-03T14:44:39.153Z,58.30
2019-05-03T14:47:07.625Z,57.40
2019-05-03T14:49:36.054Z,58.10
2019-05-03T14:52:05.558Z,57.20
2019-05-03T14:54:35.813Z,57.50
2019-05-03T14:57:05.856Z,57.70
2019-05-03T14:59:41.696Z,57.10
2019-05-03T15:02:40.176Z,57.40
2019-05-03T15:04:58.432Z,57.80
2019-05-03T15:07:26.840Z,57.90
2019-05-03T15:09:55.555Z,57.90
2019-05-03T15:12:25.233Z,58.40
2019-05-03T15:14:54.637Z,58.60
2019-05-03T15:17:24.647Z,58.90
2019-05-03T15:19:54.739Z,59.60
2019-05-03T15:22:25.202Z,60.00
2019-05-03T15:24:54.579Z,60.00
2019-05-03T15:27:24.812Z,60.60
2019-05-03T15:29:55.336Z,61.10
2019-05-03T15:32:23.509Z,61.40
2019-05-03T15:34:51.928Z,61.60
2019-05-03T15:37:20.641Z,61.90
2019-05-03T15:39:49.073Z,61.60
2019-05-03T15:42:18.580Z,60.90
2019-05-03T15:44:51.583Z,60.70
2019-05-03T15:47:21.731Z,59.70
2019-05-03T15:49:50.193Z,59.60
2019-05-03T15:52:18.598Z,59.30
2019-05-03T15:54:47.025Z,58.40
2019-05-03T15:57:15.439Z,58.60
2019-05-03T15:59:44.495Z,59.20
2019-05-03T16:02:15.086Z,59.40
2019-05-03T16:04:44.778Z,60.00
2019-05-03T16:07:14.415Z,60.20
2019-05-03T16:09:44.498Z,60.10
2019-05-03T16:12:14.565Z,60.30
2019-05-03T16:14:44.509Z,60.60
2019-05-03T16:17:14.708Z,61.60
2019-05-03T16:19:45.111Z,62.00
2019-05-03T16:22:14.372Z,62.70
2019-05-03T16:24:46.821Z,62.90
2019-05-03T16:27:20.761Z,63.40
2019-05-03T16:29:49.367Z,63.70
2019-05-03T16:32:17.904Z,63.90
2019-05-03T16:34:46.309Z,64.70
2019-05-03T16:37:14.921Z,65.00
2019-05-03T16:39:45.194Z,65.40
2019-05-03T16:42:15.493Z,65.40
2019-05-03T16:44:44.408Z,65.80
2019-05-03T16:47:12.918Z,66.30
2019-05-03T16:49:41.336Z,66.20
2019-05-03T16:52:09.764Z,66.00
2019-05-03T16:54:38.157Z,66.00
2019-05-03T16:57:06.641Z,66.00
2019-05-03T16:59:35.322Z,65.70
2019-05-03T17:02:05.733Z,65.70
2019-05-03T17:04:41.444Z,64.30
2019-05-03T17:07:11.755Z,65.00
2019-05-03T17:09:47.622Z,65.30
2019-05-03T17:12:20.633Z,65.60
2019-05-03T17:14:49.048Z,66.00
2019-05-03T17:17:17.524Z,66.40
2019-05-03T17:19:45.968Z,67.20
2019-05-03T17:22:16.975Z,68.30
2019-05-03T17:24:44.546Z,69.60
2019-05-03T17:27:12.987Z,71.30
2019-05-03T17:29:41.411Z,72.40
2019-05-03T17:32:11.105Z,73.20
2019-05-03T17:34:39.609Z,74.60
2019-05-03T17:37:08.038Z,75.50
2019-05-03T17:39:38.432Z,76.10
2019-05-03T17:42:14.703Z,77.00
2019-05-03T17:44:45.150Z,77.70
2019-05-03T17:47:15.139Z,78.70
2019-05-03T17:49:45.172Z,78.90
2019-05-03T17:52:15.540Z,79.40
2019-05-03T17:54:45.637Z,79.70
2019-05-03T17:57:24.436Z,79.90
2019-05-03T17:59:54.953Z,80.40
2019-05-03T18:02:44.968Z,80.90
2019-05-03T18:05:34.343Z,81.30
2019-05-03T18:08:09.963Z,82.20
2019-05-03T18:10:40.010Z,83.30
2019-05-03T18:13:08.432Z,84.10
2019-05-03T18:15:36.886Z,84.60
2019-05-03T18:18:05.413Z,85.30
2019-05-03T18:20:34.564Z,85.90
2019-05-03T18:23:04.979Z,86.50
2019-05-03T18:25:35.326Z,87.00
2019-05-03T18:28:03.475Z,87.50
2019-05-03T18:30:31.899Z,87.80
2019-05-03T18:33:00.389Z,87.80
2019-05-03T18:35:28.826Z,88.30
2019-05-03T18:37:58.196Z,89.00
2019-05-03T18:40:26.993Z,89.40
2019-05-03T18:42:59.969Z,89.90
2019-05-03T18:45:45.298Z,91.10
2019-05-03T18:48:14.400Z,92.40
2019-05-03T18:50:42.860Z,93.40
2019-05-03T18:53:11.399Z,94.40
2019-05-03T18:55:39.821Z,95.40
2019-05-03T18:58:08.478Z,96.50
2019-05-03T19:00:36.976Z,97.30
2019-05-03T19:03:05.399Z,98.40
2019-05-03T19:05:38.346Z,99.30
2019-05-03T19:08:24.805Z,99.90
2019-05-03T19:10:57.593Z,99.90
2019-05-03T19:13:30.688Z,99.90
2019-05-03T19:16:00.752Z,99.90
2019-05-03T19:18:35.262Z,99.90
2019-05-03T19:21:04.655Z,99.90
2019-05-03T19:23:33.122Z,99.90
2019-05-03T19:26:01.616Z,99.90
2019-05-03T19:28:30.070Z,99.90
2019-05-03T19:30:58.704Z,99.90
2019-05-03T19:33:27.105Z,99.90
2019-05-03T19:35:55.615Z,99.90
2019-05-03T19:38:24.559Z,99.90
2019-05-03T19:40:54.800Z,99.90
2019-05-03T19:43:24.387Z,99.90
2019-05-03T19:45:53.457Z,99.90
2019-05-03T19:48:21.899Z,99.90
2019-05-03T19:50:50.301Z,99.90
2019-05-03T19:53:20.352Z,99.90
2019-05-03T19:55:50.646Z,99.90
2019-05-03T19:58:19.345Z,99.90
2019-05-03T20:01:01.561Z,99.90
2019-05-03T20:03:37.323Z,99.90
2019-05-03T20:06:25.359Z,99.90
2019-05-03T20:09:14.705Z,99.90
2019-05-03T20:11:43.561Z,99.90
2019-05-03T20:14:11.993Z,99.90
2019-05-03T20:16:40.486Z,99.90
2019-05-03T20:19:18.037Z,99.90
2019-05-03T20:21:39.057Z,99.90
2019-05-03T20:24:08.365Z,99.90
2019-05-03T20:26:36.781Z,99.90
2019-05-03T20:29:05.218Z,99.90
2019-05-03T20:31:35.322Z,99.90
2019-05-03T20:34:05.337Z,99.90
2019-05-03T20:36:35.091Z,99.90
2019-05-03T20:39:05.427Z,99.90
2019-05-03T20:41:35.046Z,99.90
2019-05-03T20:44:05.413Z,99.90
2019-05-03T20:46:38.216Z,99.90
2019-05-03T20:49:08.294Z,99.90
2019-05-03T20:51:36.745Z,99.90
2019-05-03T20:54:05.245Z,99.90
2019-05-03T20:56:33.640Z,99.90
2019-05-03T20:59:02.080Z,99.90
2019-05-03T21:01:30.485Z,99.90
2019-05-03T21:03:58.898Z,99.90
2019-05-03T21:06:35.427Z,99.90
2019-05-03T21:08:57.468Z,99.90
2019-05-03T21:11:25.941Z,99.90
2019-05-03T21:13:54.418Z,99.90
2019-05-03T21:16:30.237Z,99.90
2019-05-03T21:19:24.937Z,99.90
2019-05-03T21:21:55.430Z,99.90
2019-05-03T21:24:28.635Z,99.90
2019-05-03T21:26:57.241Z,99.90
2019-05-03T21:29:25.678Z,99.90
2019-05-03T21:31:55.261Z,99.90
2019-05-03T21:34:25.191Z,99.90
2019-05-03T21:36:54.493Z,99.90
2019-05-03T21:39:24.674Z,99.90
2019-05-03T21:41:55.400Z,99.90
2019-05-03T21:44:33.713Z,99.90
2019-05-03T21:47:15.907Z,99.90
2019-05-03T21:49:45.991Z,99.90
2019-05-03T21:52:14.684Z,99.90
2019-05-03T21:54:45.050Z,99.90
2019-05-03T21:57:14.235Z,99.90
2019-05-03T21:59:44.780Z,99.90
2019-05-03T22:02:15.278Z,99.90
2019-05-03T22:04:44.457Z,99.90
2019-05-03T22:07:12.981Z,99.90
2019-05-03T22:09:41.415Z,99.90
2019-05-03T22:12:10.071Z,99.90
2019-05-03T22:14:45.981Z,99.90
2019-05-03T22:17:28.090Z,99.90
2019-05-03T22:19:58.179Z,99.90
2019-05-03T22:22:36.462Z,99.90
2019-05-03T22:25:08.090Z,99.90
2019-05-03T22:27:45.456Z,99.90
2019-05-03T22:30:13.929Z,99.90
2019-05-03T22:32:44.413Z,99.90
2019-05-03T22:35:12.616Z,99.90
2019-05-03T22:37:41.049Z,99.90
2019-05-03T22:40:10.014Z,99.90
2019-05-03T22:42:38.446Z,99.90
2019-05-03T22:45:07.188Z,99.90
2019-05-03T22:47:35.819Z,99.90
2019-05-03T22:50:05.463Z,99.90
2019-05-03T22:52:34.975Z,99.90
2019-05-03T22:55:06.074Z,99.90
2019-05-03T22:57:35.011Z,99.90
2019-05-03T23:00:06.322Z,99.90
2019-05-03T23:02:35.231Z,99.90
2019-05-03T23:05:04.698Z,99.90
2019-05-03T23:07:35.517Z,99.90
2019-05-03T23:10:05.420Z,99.90
2019-05-03T23:12:34.854Z,99.90
2019-05-03T23:15:07.224Z,99.90
2019-05-03T23:17:35.651Z,99.90
2019-05-03T23:20:08.744Z,99.90
2019-05-03T23:22:37.221Z,99.90
2019-05-03T23:25:07.345Z,99.90
2019-05-03T23:27:35.744Z,99.90
2019-05-03T23:30:05.817Z,99.90
2019-05-03T23:32:35.049Z,99.90
2019-05-03T23:35:05.017Z,99.90
2019-05-03T23:37:34.623Z,99.90
2019-05-03T23:40:04.890Z,99.90
2019-05-03T23:42:35.040Z,99.90
2019-05-03T23:45:04.894Z,99.90
2019-05-03T23:47:35.115Z,99.90
2019-05-03T23:50:06.884Z,99.90
2019-05-03T23:52:35.527Z,99.90
2019-05-03T23:55:06.157Z,99.90
2019-05-03T23:57:35.685Z,99.90
